aviador You're here:

KGEV Decoded Metar

JEFFERSON in NC, USA
Report Time2017-05-26 11:10:00
UTC Time2017-05-26 11:17:09
Flight Rules mvfr MVFR
Wind290° at 11 Gusting to 20 kt
W.Decomp.*RWY 28: 10.5 kt HW 3.2 kt RCW
W.Rank290° ranks 2
Current wind is above 290° avg. (10.4)
Visibility9999 m
Phenomena:N/A
Clouds:Overcast 022 Hf
Expected CloudBase > 1,600 ft AGL from Temp-Dew spread
Ceiling2,200 ft
Temp13°C (ISA +4)
Dew Point09°C (77% RH)
AAT8.8°C
QNH1014 hPa
Density Alt3,819 ft
Elevation3,179 ft
Report Wrong Elevation
Raw Report
METAR KGEV 261110Z AUTO 29011G20KT 10SM OVC022 13/09 A2995 RMK AO2
T01250085=

Extra information for KGEV:More info

Metar Taf Metar & Taf Last 4 Metars F.Rules Stats Wind Profile Meteogram Temp Stats Airport Information Weather charts Add Link Nearby VenuesMetar ALERT Operation Metar Decoded Social comments

AIRNAV info for KGEV